Impacts METAR Board
IDs:

KDTW - Detroit Metro/Wayne, MI, US

Updated at: 0500 UTC 20 Oct 2018
Potential Impact None Slight Moderate High
Time 19/17Z 19/18Z 19/19Z 19/20Z 19/21Z 19/22Z 19/23Z 20/00Z 20/01Z 20/02Z 20/03Z 20/04Z 20/05Z
Temp56 58 59 58 54 51 50 48 49 49 49 50 50
Dewpt34 33 31 32 36 39 38 40 40 41 42 43 45
Altim30.06 30.01 29.96 29.91 29.90 29.87 29.86 29.83 29.81 29.78 29.77 29.75 29.74
VIS10 10 10 10 5 10 9 10 10 8 9 6 7
CIG140 140 140 140 95 60 46 45 35 26 15 14 12
CoverBKNBKNOVCOVCOVCOVCOVCOVCOVCOVCOVCOVCOVC
FltCatVFRVFRVFRVFRMVFRVFRVFRVFRVFRMVFRMVFRMVFRMVFR
WX---------RA---RA---------DZ-RA
WDir220210230220240210230230220230230230230
WSpd13 17 20 21 16 11 20 14 17 19 20 18 15
WGst22 -- 24 25 -- -- 26 -- -- 27 25 24 --
Raw hourly METARs
KDTW 191653Z 22013G22KT 10SM BKN140 BKN230 13/01 A3006 RMK AO2 SLP180 T01330011 $
KDTW 191753Z 21017KT 10SM BKN140 BKN230 14/01 A3001 RMK AO2 SLP163 T01440006 10144 20044 58043
KDTW 191853Z 23020G24KT 10SM FEW080 OVC140 15/M01 A2996 RMK AO2 PK WND 22028/1817 SLP146 T01501006
KDTW 191953Z 22021G25KT 10SM FEW080 SCT110 OVC140 14/00 A2991 RMK AO2 PK WND 23026/1925 SLP131 T01440000
KDTW 192053Z 24016KT 5SM -RA FEW055 FEW075 OVC095 12/02 A2990 RMK AO2 PK WND 21026/2000 RAB46 SLP127 P0000 60000 T01220022 56037
KDTW 192153Z 21011KT 10SM BKN060 OVC075 11/04 A2987 RMK AO2 RAE50 SLP119 P0002 T01060039
KDTW 192253Z 23020G26KT 9SM -RA BKN046 OVC055 10/03 A2986 RMK AO2 PK WND 21026/2249 RAB2157E06B23 SLP114 P0000 T01000033
KDTW 192353Z 23014KT 10SM FEW035 OVC045 09/04 A2983 RMK AO2 RAE51 SLP106 P0000 60002 T00890044 10156 20089 58021
KDTW 200053Z 22017KT 10SM BKN035 OVC045 09/04 A2981 RMK AO2 SLP096 T00940044
KDTW 200153Z 23019G27KT 8SM OVC026 09/05 A2978 RMK AO2 PK WND 23028/0129 SLP087 T00940050
KDTW 200253Z 23020G25KT 9SM OVC015 09/06 A2977 RMK AO2 PK WND 23027/0205 SLP081 T00940056 56023
KDTW 200359Z 23018G24KT 6SM -DZ OVC014 10/06 A2975 RMK AO2 P0000 T01000061
KDTW 200453Z 23015KT 7SM -RA OVC012 10/07 A2974 RMK AO2 DZE43RAB46 SLP072 P0000 T01000072 401560039



Page loaded:  05:58 UTC  |   10:58 PM Pacific  |   11:58 PM Mountain  |   12:58 AM Central  |   01:58 AM Eastern

 

ADVISORIES

FORECASTS

FORECASTS

OBSERVATIONS

USER TOOLS

ABOUT US